createdAt,value
2018-09-26T00:03:31.628Z,102340.66
2018-09-26T00:08:34.898Z,102332.32
2018-09-26T00:13:38.191Z,102339.27
2018-09-26T00:18:41.482Z,102342.05
2018-09-26T00:23:44.759Z,102333.50
2018-09-26T00:28:48.039Z,102341.66
2018-09-26T00:33:51.318Z,102334.70
2018-09-26T00:38:54.672Z,102334.70
2018-09-26T00:43:57.950Z,102326.36
2018-09-26T00:49:01.230Z,102322.59
2018-09-26T00:54:04.514Z,102323.77
2018-09-26T00:59:07.790Z,102329.30
2018-09-26T01:04:11.069Z,102329.68
2018-09-26T01:09:14.367Z,102325.51
2018-09-26T01:14:17.649Z,102329.81
2018-09-26T01:19:20.943Z,102322.89
2018-09-26T01:24:24.231Z,102313.73
2018-09-26T01:29:27.534Z,102299.24
2018-09-26T01:34:30.830Z,102282.75
2018-09-26T01:39:34.155Z,102284.52
2018-09-26T01:44:37.461Z,102283.55
2018-09-26T01:49:40.745Z,102290.72
2018-09-26T01:54:44.039Z,102272.38
2018-09-26T01:59:47.322Z,102257.88
2018-09-26T02:04:50.623Z,102254.09
2018-09-26T02:09:53.901Z,102249.27
2018-09-26T02:14:57.199Z,102235.58
2018-09-26T02:20:00.475Z,102229.97
2018-09-26T02:25:04.043Z,102229.06
2018-09-26T02:30:07.474Z,102214.73
2018-09-26T02:35:10.763Z,102216.50
2018-09-26T02:40:14.089Z,102211.95
2018-09-26T02:45:18.306Z,102199.39
2018-09-26T02:50:21.588Z,102207.73
2018-09-26T02:55:24.882Z,102224.25
2018-09-26T03:00:28.165Z,102244.68
2018-09-26T03:05:31.459Z,102233.91
2018-09-26T03:10:34.799Z,102223.19
2018-09-26T03:15:38.079Z,102223.40
2018-09-26T03:20:41.389Z,102217.77
2018-09-26T03:30:47.082Z,102184.66
2018-09-26T03:35:50.378Z,102203.33
2018-09-26T03:40:53.687Z,102200.33
2018-09-26T03:45:57.207Z,102214.84
2018-09-26T03:51:00.494Z,102193.23
2018-09-26T03:56:03.814Z,102191.09
2018-09-26T04:01:07.300Z,102199.31
2018-09-26T04:06:10.590Z,102191.36
2018-09-26T04:11:13.888Z,102198.74
2018-09-26T04:16:17.351Z,102194.36
2018-09-26T04:21:20.626Z,102181.62
2018-09-26T04:26:24.045Z,102169.91
2018-09-26T04:31:27.226Z,102175.89
2018-09-26T04:36:30.534Z,102189.20
2018-09-26T04:41:33.833Z,102190.97
2018-09-26T04:46:37.284Z,102205.27
2018-09-26T04:51:40.688Z,102192.36
2018-09-26T04:56:44.054Z,102186.80
2018-09-26T05:01:47.427Z,102185.63
2018-09-26T05:06:50.715Z,102186.42
2018-09-26T05:11:54.679Z,102176.27
2018-09-26T05:16:58.505Z,102172.74
2018-09-26T05:22:01.898Z,102155.21
2018-09-26T05:27:05.266Z,102154.39
2018-09-26T05:32:08.547Z,102145.90
2018-09-26T05:37:11.826Z,102141.73
2018-09-26T05:42:15.146Z,102148.26
2018-09-26T05:47:18.426Z,102142.52
2018-09-26T05:52:21.791Z,102146.09
2018-09-26T05:57:25.103Z,102144.89
2018-09-26T06:02:28.533Z,102132.37
2018-09-26T06:07:31.815Z,102124.44
2018-09-26T06:12:35.099Z,102131.98
2018-09-26T06:17:38.477Z,102125.25
2018-09-26T06:22:42.550Z,102135.19
2018-09-26T06:27:45.832Z,102124.28
2018-09-26T06:32:49.241Z,102112.73
2018-09-26T06:37:52.531Z,102114.59
2018-09-26T06:42:55.934Z,102102.49
2018-09-26T06:47:59.205Z,102103.23
2018-09-26T06:53:02.534Z,102117.42
2018-09-26T06:58:05.814Z,102110.81
2018-09-26T07:03:09.401Z,102114.72
2018-09-26T07:08:12.762Z,102120.42
2018-09-26T07:13:16.194Z,102117.73
2018-09-26T07:18:19.470Z,102125.41
2018-09-26T07:23:23.047Z,102123.70
2018-09-26T07:28:26.327Z,102140.46
2018-09-26T07:33:29.632Z,102144.04
2018-09-26T07:38:32.992Z,102135.34
2018-09-26T07:43:36.315Z,102135.45
2018-09-26T07:48:39.686Z,102127.70
2018-09-26T07:53:42.967Z,102131.94
2018-09-26T07:58:46.296Z,102135.17
2018-09-26T08:03:49.591Z,102115.36
2018-09-26T08:08:52.969Z,102124.53
2018-09-26T08:13:56.256Z,102118.00
2018-09-26T08:18:59.534Z,102115.88
2018-09-26T08:24:02.943Z,102104.92
2018-09-26T08:29:06.297Z,102099.22
2018-09-26T08:34:09.578Z,102087.55
2018-09-26T08:39:13.634Z,102090.81
2018-09-26T08:44:16.962Z,102094.72
2018-09-26T08:49:22.570Z,102087.95
2018-09-26T08:54:25.886Z,102088.16
2018-09-26T08:59:29.191Z,102067.19
2018-09-26T09:09:34.851Z,102061.64
2018-09-26T09:14:38.281Z,102062.77
2018-09-26T09:19:41.486Z,102046.32
2018-09-26T09:24:44.847Z,102047.16
2018-09-26T09:29:48.180Z,102048.98
2018-09-26T09:34:51.491Z,102044.80
2018-09-26T09:39:55.677Z,102040.59
2018-09-26T09:44:59.068Z,102028.41
2018-09-26T09:50:02.392Z,102033.39
2018-09-26T09:55:06.362Z,102015.39
2018-09-26T10:00:10.235Z,101996.13
2018-09-26T10:05:13.558Z,101994.56
2018-09-26T10:10:16.867Z,101987.75
2018-09-26T10:15:21.441Z,101981.88
2018-09-26T10:20:24.823Z,101986.29
2018-09-26T10:25:28.479Z,101987.30
2018-09-26T10:30:31.932Z,101973.77
2018-09-26T10:35:36.251Z,101979.75
2018-09-26T10:40:39.592Z,101969.63
2018-09-26T10:45:42.894Z,101966.06
2018-09-26T10:50:46.198Z,101974.86
2018-09-26T10:55:49.509Z,101971.91
2018-09-26T11:00:52.825Z,101964.95
2018-09-26T11:05:56.138Z,101956.02
2018-09-26T11:10:59.479Z,101933.98
2018-09-26T11:16:02.791Z,101916.44
2018-09-26T11:21:06.278Z,101923.44
2018-09-26T11:26:09.598Z,101925.17
2018-09-26T11:31:12.894Z,101920.86
2018-09-26T11:36:16.206Z,101915.09
2018-09-26T11:41:19.538Z,101920.09
2018-09-26T11:46:22.928Z,101912.70
2018-09-26T11:51:26.248Z,101901.37
2018-09-26T11:56:30.188Z,101898.98
2018-09-26T12:01:33.450Z,101896.35
2018-09-26T12:06:36.947Z,101873.29
2018-09-26T12:11:40.246Z,101869.89
2018-09-26T12:16:43.554Z,101860.77
2018-09-26T12:21:46.880Z,101860.36
2018-09-26T12:26:50.242Z,101852.21
2018-09-26T12:31:53.547Z,101840.25
2018-09-26T12:36:56.927Z,101829.13
2018-09-26T12:42:00.270Z,101823.34
2018-09-26T12:47:03.588Z,101818.80
2018-09-26T12:52:07.835Z,101804.67
2018-09-26T12:57:11.120Z,101800.93
2018-09-26T13:02:14.440Z,101796.94
2018-09-26T13:07:17.813Z,101783.00
2018-09-26T13:12:21.248Z,101788.77
2018-09-26T13:17:24.515Z,101775.66
2018-09-26T13:22:27.906Z,101769.50
2018-09-26T13:27:31.231Z,101758.38
2018-09-26T13:32:34.529Z,101756.79
2018-09-26T13:37:38.103Z,101742.88
2018-09-26T13:42:41.413Z,101728.16
2018-09-26T13:47:44.739Z,101735.72
2018-09-26T13:52:48.050Z,101726.58
2018-09-26T13:57:51.356Z,101722.02
2018-09-26T14:02:54.659Z,101716.62
2018-09-26T14:07:57.990Z,101704.13
2018-09-26T14:13:01.323Z,101693.78
2018-09-26T14:18:04.634Z,101698.34
2018-09-26T14:23:08.265Z,101686.82
2018-09-26T14:28:11.840Z,101673.89
2018-09-26T14:33:15.423Z,101672.52
2018-09-26T14:38:19.044Z,101671.33
2018-09-26T14:43:22.572Z,101653.05
2018-09-26T14:48:26.134Z,101638.14
2018-09-26T14:53:29.714Z,101630.21
2018-09-26T14:58:33.353Z,101636.56
2018-09-26T15:03:36.895Z,101635.17
2018-09-26T15:08:40.490Z,101637.55
2018-09-26T15:13:44.126Z,101630.61
2018-09-26T15:18:47.739Z,101626.05
2018-09-26T15:23:51.346Z,101618.89
2018-09-26T15:28:54.924Z,101614.31
2018-09-26T15:33:58.478Z,101609.53
2018-09-26T15:39:02.110Z,101614.11
2018-09-26T15:44:05.679Z,101611.10
2018-09-26T15:49:09.302Z,101610.72
2018-09-26T15:54:12.869Z,101616.26
2018-09-26T15:59:16.486Z,101601.56
2018-09-26T16:04:26.160Z,101596.39
2018-09-26T16:09:29.415Z,101600.40
2018-09-26T16:14:32.714Z,101600.59
2018-09-26T16:19:36.019Z,101607.34
2018-09-26T16:24:39.327Z,101600.19
2018-09-26T16:29:42.643Z,101612.11
2018-09-26T16:34:45.975Z,101591.86
2018-09-26T16:39:49.346Z,101595.63
2018-09-26T16:44:52.659Z,101585.70
2018-09-26T16:49:55.956Z,101589.08
2018-09-26T16:54:59.347Z,101593.05
2018-09-26T17:00:02.677Z,101594.64
2018-09-26T17:05:06.903Z,101599.20
2018-09-26T17:10:10.271Z,101607.12
2018-09-26T17:15:13.524Z,101613.72
2018-09-26T17:20:16.879Z,101608.53
2018-09-26T17:25:20.131Z,101603.78
2018-09-26T17:30:23.487Z,101604.97
2018-09-26T17:35:26.746Z,101599.20
2018-09-26T17:40:30.151Z,101585.70
2018-09-26T17:45:33.538Z,101590.27
2018-09-26T17:50:36.931Z,101592.86
2018-09-26T17:55:40.222Z,101587.67
2018-09-26T18:00:43.503Z,101593.05
2018-09-26T18:05:46.979Z,101596.03
2018-09-26T18:10:50.266Z,101598.22
2018-09-26T18:15:53.558Z,101597.41
2018-09-26T18:20:56.842Z,101589.07
2018-09-26T18:26:00.193Z,101587.28
2018-09-26T18:31:03.591Z,101593.66
2018-09-26T18:36:06.876Z,101594.23
2018-09-26T18:41:10.182Z,101597.81
2018-09-26T18:46:13.536Z,101592.66
2018-09-26T18:51:17.063Z,101592.45
2018-09-26T18:56:20.356Z,101592.86
2018-09-26T19:01:23.638Z,101596.41
2018-09-26T19:06:27.194Z,101597.80
2018-09-26T19:11:30.478Z,101599.61
2018-09-26T19:16:33.756Z,101610.16
2018-09-26T19:21:37.144Z,101599.39
2018-09-26T19:26:40.441Z,101596.42
2018-09-26T19:31:43.727Z,101595.03
2018-09-26T19:36:47.014Z,101594.45
2018-09-26T19:41:50.672Z,101590.47
2018-09-26T19:46:56.046Z,101589.44
2018-09-26T19:51:59.694Z,101594.65
2018-09-26T19:57:03.018Z,101605.96
2018-09-26T20:02:06.335Z,101608.72
2018-09-26T20:07:09.646Z,101606.13
2018-09-26T20:12:12.932Z,101602.19
2018-09-26T20:17:16.215Z,101609.95
2018-09-26T20:22:19.494Z,101619.09
2018-09-26T20:27:22.805Z,101614.71
2018-09-26T20:32:26.090Z,101608.15
2018-09-26T20:37:29.377Z,101605.59
2018-09-26T20:42:32.655Z,101610.16
2018-09-26T20:47:35.944Z,101611.53
2018-09-26T20:52:39.223Z,101612.75
2018-09-26T20:57:42.794Z,101619.70
2018-09-26T21:02:46.207Z,101626.64
2018-09-26T21:07:52.081Z,101629.03
2018-09-26T21:13:00.906Z,101634.80
2018-09-26T21:18:04.215Z,101636.52
2018-09-26T21:23:07.534Z,101645.08
2018-09-26T21:28:10.883Z,101643.30
2018-09-26T21:33:14.190Z,101644.10
2018-09-26T21:38:17.522Z,101630.19
2018-09-26T21:43:20.802Z,101632.78
2018-09-26T21:48:24.265Z,101622.86
2018-09-26T21:53:27.718Z,101620.25
2018-09-26T21:58:31.144Z,101623.23
2018-09-26T22:03:34.638Z,101626.41
2018-09-26T22:08:37.917Z,101622.23
2018-09-26T22:13:41.209Z,101618.08
2018-09-26T22:18:44.503Z,101623.84
2018-09-26T22:23:47.821Z,101620.86
2018-09-26T22:28:51.107Z,101641.28
2018-09-26T22:33:54.393Z,101639.73
2018-09-26T22:38:57.670Z,101625.81
2018-09-26T22:44:00.955Z,101626.79
2018-09-26T22:49:04.346Z,101628.98
2018-09-26T22:54:07.636Z,101627.20
2018-09-26T22:59:10.936Z,101625.41
2018-09-26T23:04:14.211Z,101616.08
2018-09-26T23:09:17.493Z,101625.41
2018-09-26T23:14:20.840Z,101619.27
2018-09-26T23:19:24.126Z,101618.65
2018-09-26T23:24:27.618Z,101612.70
2018-09-26T23:29:30.903Z,101607.73
2018-09-26T23:34:34.202Z,101609.33
2018-09-26T23:39:37.482Z,101606.53
2018-09-26T23:44:40.775Z,101607.75
2018-09-26T23:49:44.063Z,101611.50
2018-09-26T23:54:47.373Z,101605.94
2018-09-26T23:59:50.659Z,101611.72
